Time;durP1;ratioP1;P1;durP2;ratioP2;P2;SDS_P1;SDS_P2;PMS_P1;PMS_P2;Temp;Humidity;BMP_temperature;BMP_pressure;BME280_temperature;BME280_humidity;BME280_pressure;Samples;Min_cycle;Max_cycle;Signal;HPM_P1;HPM_P2
2023/05/28 00:01:33;;;;;;;;;3.00;2.33;;;;;;;;5055874;28;45298;-83
2023/05/28 00:03:59;;;;;;;;;2.00;1.25;;;;;;;;5055435;28;45278;-83
2023/05/28 00:06:24;;;;;;;;;7.33;4.00;;;;;;;;5055720;28;45329;-83
2023/05/28 00:08:49;;;;;;;;;5.00;3.00;;;;;;;;5055600;28;46068;-83
2023/05/28 00:11:15;;;;;;;;;3.00;2.00;;;;;;;;5055774;28;45354;-83
2023/05/28 00:13:40;;;;;;;;;1.25;1.25;;;;;;;;5055654;28;45367;-83
2023/05/28 00:16:05;;;;;;;;;3.00;2.00;;;;;;;;5056343;28;45357;-83
2023/05/28 00:18:30;;;;;;;;;4.33;3.00;;;;;;;;5058647;28;45526;-82
2023/05/28 00:20:56;;;;;;;;;7.00;4.00;;;;;;;;5059520;28;45355;-83
2023/05/28 00:23:21;;;;;;;;;4.00;2.67;;;;;;;;5059283;28;45519;-83
2023/05/28 00:25:46;;;;;;;;;2.00;2.00;;;;;;;;5059010;28;45331;-83
2023/05/28 00:28:11;;;;;;;;;5.33;3.00;;;;;;;;5040784;28;46372;-83
2023/05/28 00:30:37;;;;;;;;;9.67;4.00;;;;;;;;5058891;28;45478;-83
2023/05/28 00:33:02;;;;;;;;;3.50;2.00;;;;;;;;5058967;28;45434;-83
2023/05/28 00:35:27;;;;;;;;;2.33;2.33;;;;;;;;5059025;28;45431;-83
2023/05/28 00:37:52;;;;;;;;;4.67;4.00;;;;;;;;5059244;28;45540;-83
2023/05/28 00:40:18;;;;;;;;;4.00;4.00;;;;;;;;5059250;28;45412;-83
2023/05/28 00:42:44;;;;;;;;;5.25;3.00;;;;;;;;5059296;28;45475;-83
2023/05/28 00:45:09;;;;;;;;;4.25;3.00;;;;;;;;5059196;28;45297;-83
2023/05/28 00:47:35;;;;;;;;;4.00;3.25;;;;;;;;5040618;28;48335;-83
2023/05/28 00:50:01;;;;;;;;;4.00;2.00;;;;;;;;5040751;28;46084;-83
2023/05/28 00:52:27;;;;;;;;;4.00;4.00;;;;;;;;5058952;28;45477;-83
2023/05/28 00:54:52;;;;;;;;;3.75;3.00;;;;;;;;5058817;28;45484;-83
2023/05/28 00:57:23;;;;;;;;;2.00;2.00;;;;;;;;5058789;28;46271;-83
2023/05/28 00:59:48;;;;;;;;;3.00;2.00;;;;;;;;5058609;28;45307;-83
2023/05/28 01:02:13;;;;;;;;;5.00;1.50;;;;;;;;5058699;28;45349;-83
2023/05/28 01:04:39;;;;;;;;;2.67;2.67;;;;;;;;5058836;28;45313;-83
2023/05/28 01:07:04;;;;;;;;;4.00;2.00;;;;;;;;5058424;28;45445;-83
2023/05/28 01:09:29;;;;;;;;;6.00;3.00;;;;;;;;5040484;28;45357;-83
2023/05/28 01:11:55;;;;;;;;;5.33;2.67;;;;;;;;5058494;28;45313;-83
2023/05/28 01:14:20;;;;;;;;;4.00;2.00;;;;;;;;5040363;28;45383;-82
2023/05/28 01:16:48;;;;;;;;;2.50;2.50;;;;;;;;5057956;28;45382;-82
2023/05/28 01:19:16;;;;;;;;;3.25;1.00;;;;;;;;5058538;28;45827;-83
2023/05/28 01:21:43;;;;;;;;;3.00;3.00;;;;;;;;5058371;28;45319;-83
2023/05/28 01:24:09;;;;;;;;;3.50;3.00;;;;;;;;5058474;28;45364;-83
2023/05/28 01:26:34;;;;;;;;;6.50;3.00;;;;;;;;5058073;28;45355;-83
2023/05/28 01:28:59;;;;;;;;;4.75;3.25;;;;;;;;5039257;28;45435;-83
2023/05/28 01:31:25;;;;;;;;;6.00;5.00;;;;;;;;5058048;28;45328;-83
2023/05/28 01:33:50;;;;;;;;;4.50;2.75;;;;;;;;5057930;28;45292;-83
2023/05/28 01:36:20;;;;;;;;;5.67;4.00;;;;;;;;5058036;28;46239;-82
2023/05/28 01:38:47;;;;;;;;;3.00;2.75;;;;;;;;5057987;28;45286;-83
2023/05/28 01:41:13;;;;;;;;;8.00;2.00;;;;;;;;5058046;28;45280;-83
2023/05/28 01:43:39;;;;;;;;;4.25;3.00;;;;;;;;5057821;28;45535;-83
2023/05/28 01:46:04;;;;;;;;;3.75;2.75;;;;;;;;5057257;28;46892;-83
2023/05/28 01:48:30;;;;;;;;;3.00;2.25;;;;;;;;5057794;28;45261;-83
2023/05/28 01:50:55;;;;;;;;;5.75;3.00;;;;;;;;5057812;28;45340;-83
2023/05/28 01:53:20;;;;;;;;;5.00;5.00;;;;;;;;5039631;28;45308;-82
2023/05/28 01:55:46;;;;;;;;;3.75;3.00;;;;;;;;5057508;28;45347;-83
2023/05/28 01:58:11;;;;;;;;;4.00;3.67;;;;;;;;5039675;28;45326;-83
2023/05/28 02:00:41;;;;;;;;;5.00;2.00;;;;;;;;5057294;28;45337;-83
2023/05/28 02:03:10;;;;;;;;;5.75;4.75;;;;;;;;5057656;28;45351;-83
2023/05/28 02:05:36;;;;;;;;;2.75;1.75;;;;;;;;5057385;28;46719;-83
2023/05/28 02:08:01;;;;;;;;;3.33;2.00;;;;;;;;5057417;28;45360;-83
2023/05/28 02:10:26;;;;;;;;;7.00;2.00;;;;;;;;5057451;28;45336;-83
2023/05/28 02:12:51;;;;;;;;;3.33;2.00;;;;;;;;5057054;28;45451;-83
2023/05/28 02:15:16;;;;;;;;;4.67;3.67;;;;;;;;5057161;28;45853;-83
2023/05/28 02:17:43;;;;;;;;;6.00;3.67;;;;;;;;5057436;28;45526;-83
2023/05/28 02:20:09;;;;;;;;;4.00;3.00;;;;;;;;5057351;28;45219;-83
2023/05/28 02:22:34;;;;;;;;;6.00;2.00;;;;;;;;5057178;28;45547;-83
2023/05/28 02:24:59;;;;;;;;;4.33;3.67;;;;;;;;5057155;28;46547;-83
2023/05/28 02:27:24;;;;;;;;;6.67;4.67;;;;;;;;5056798;28;45539;-83
2023/05/28 02:29:50;;;;;;;;;3.00;3.00;;;;;;;;5057309;28;45357;-82
2023/05/28 02:32:16;;;;;;;;;3.25;2.75;;;;;;;;5038919;28;45225;-83
2023/05/28 02:34:41;;;;;;;;;4.50;4.00;;;;;;;;5056995;28;45405;-83
2023/05/28 02:37:07;;;;;;;;;3.50;2.50;;;;;;;;5057607;28;45344;-83
2023/05/28 02:39:32;;;;;;;;;3.33;3.33;;;;;;;;5056839;28;45400;-83
2023/05/28 02:41:57;;;;;;;;;3.00;3.00;;;;;;;;5056625;28;45249;-83
2023/05/28 02:44:22;;;;;;;;;7.00;3.67;;;;;;;;5057463;28;46414;-83
2023/05/28 02:46:47;;;;;;;;;5.25;4.25;;;;;;;;5057126;28;45514;-83
2023/05/28 02:49:13;;;;;;;;;3.67;3.67;;;;;;;;5057463;28;45283;-83
2023/05/28 02:51:38;;;;;;;;;5.00;3.00;;;;;;;;5057228;28;45302;-83
2023/05/28 02:54:03;;;;;;;;;4.00;3.00;;;;;;;;5056932;28;45405;-82
2023/05/28 02:56:28;;;;;;;;;4.00;3.00;;;;;;;;5056851;28;45301;-83
2023/05/28 02:58:54;;;;;;;;;7.00;5.00;;;;;;;;5057005;28;45317;-83
2023/05/28 03:01:19;;;;;;;;;4.00;4.00;;;;;;;;5056841;28;45367;-82
2023/05/28 03:03:44;;;;;;;;;3.33;3.00;;;;;;;;5056927;28;45373;-83
2023/05/28 03:06:09;;;;;;;;;5.67;4.00;;;;;;;;5057222;28;45320;-82
2023/05/28 03:08:35;;;;;;;;;5.00;4.00;;;;;;;;5056819;28;45344;-83
2023/05/28 03:11:00;;;;;;;;;6.75;3.75;;;;;;;;5056214;28;45518;-82
2023/05/28 03:13:25;;;;;;;;;5.00;3.67;;;;;;;;5056246;28;45523;-83
2023/05/28 03:15:50;;;;;;;;;4.00;2.67;;;;;;;;5056561;28;45498;-83
2023/05/28 03:18:15;;;;;;;;;4.67;3.33;;;;;;;;5056722;28;45310;-83
2023/05/28 03:20:41;;;;;;;;;4.33;4.00;;;;;;;;5056350;28;45313;-83
2023/05/28 03:23:06;;;;;;;;;4.25;4.00;;;;;;;;5056172;28;45464;-83
2023/05/28 03:25:31;;;;;;;;;5.67;3.67;;;;;;;;5055971;28;45279;-83
2023/05/28 03:27:56;;;;;;;;;7.33;5.00;;;;;;;;5056520;28;45348;-83
2023/05/28 03:30:21;;;;;;;;;7.00;5.33;;;;;;;;5056364;28;45348;-82
2023/05/28 03:32:48;;;;;;;;;4.00;4.00;;;;;;;;5055843;28;45595;-83
2023/05/28 03:35:13;;;;;;;;;8.25;4.00;;;;;;;;5056236;28;45327;-83
2023/05/28 03:37:38;;;;;;;;;6.33;5.00;;;;;;;;5056529;28;45337;-82
2023/05/28 03:40:04;;;;;;;;;6.67;4.00;;;;;;;;5055804;28;45262;-83
2023/05/28 03:42:29;;;;;;;;;8.25;3.25;;;;;;;;5055882;28;46291;-83
2023/05/28 03:44:55;;;;;;;;;8.50;3.25;;;;;;;;5055939;28;45461;-83
2023/05/28 03:47:20;;;;;;;;;4.33;4.33;;;;;;;;5056302;28;45395;-82
2023/05/28 03:49:45;;;;;;;;;8.33;5.33;;;;;;;;5056179;28;45425;-82
2023/05/28 03:52:10;;;;;;;;;6.33;6.00;;;;;;;;5055455;28;46355;-83
2023/05/28 03:54:35;;;;;;;;;2.33;2.00;;;;;;;;5037468;28;45522;-82
2023/05/28 03:57:01;;;;;;;;;8.00;4.67;;;;;;;;5056111;28;45420;-82
2023/05/28 03:59:26;;;;;;;;;5.67;4.33;;;;;;;;5037831;28;45467;-83
2023/05/28 04:01:51;;;;;;;;;4.00;4.00;;;;;;;;5055743;28;46609;-83
2023/05/28 04:04:16;;;;;;;;;7.33;5.00;;;;;;;;5055712;28;45198;-82
2023/05/28 04:06:41;;;;;;;;;7.33;5.00;;;;;;;;5055882;28;45425;-82
2023/05/28 04:09:07;;;;;;;;;9.67;4.67;;;;;;;;5055486;28;45442;-83
2023/05/28 04:11:34;;;;;;;;;8.25;5.00;;;;;;;;5055480;28;46557;-82
2023/05/28 04:14:00;;;;;;;;;7.00;6.00;;;;;;;;5055418;28;45578;-83
2023/05/28 04:16:25;;;;;;;;;5.50;4.00;;;;;;;;5037593;28;45361;-82
2023/05/28 04:18:50;;;;;;;;;7.00;5.00;;;;;;;;5055694;28;45374;-83
2023/05/28 04:21:16;;;;;;;;;7.75;5.00;;;;;;;;5037333;28;47354;-83
2023/05/28 04:23:41;;;;;;;;;7.50;3.25;;;;;;;;5054992;28;45430;-82
2023/05/28 04:26:06;;;;;;;;;7.00;4.67;;;;;;;;5055669;28;45364;-82
2023/05/28 04:28:31;;;;;;;;;12.33;6.00;;;;;;;;5055477;28;45324;-83
2023/05/28 04:31:00;;;;;;;;;6.00;4.25;;;;;;;;5040281;28;46305;-83
2023/05/28 04:33:28;;;;;;;;;6.00;4.00;;;;;;;;5059624;28;45280;-83
2023/05/28 04:35:54;;;;;;;;;7.00;4.25;;;;;;;;5056094;28;45345;-82
2023/05/28 04:38:20;;;;;;;;;8.25;5.00;;;;;;;;5055407;28;45465;-82
2023/05/28 04:40:45;;;;;;;;;5.75;3.00;;;;;;;;5055530;28;46268;-83
2023/05/28 04:43:11;;;;;;;;;11.50;6.25;;;;;;;;5055173;28;45289;-83
2023/05/28 04:45:37;;;;;;;;;5.75;4.00;;;;;;;;5055556;28;45320;-83
2023/05/28 04:48:03;;;;;;;;;6.00;4.25;;;;;;;;5055502;28;45529;-83
2023/05/28 04:50:29;;;;;;;;;6.75;4.75;;;;;;;;5055115;28;46289;-83
2023/05/28 04:52:54;;;;;;;;;4.33;3.33;;;;;;;;5055118;28;45226;-83
2023/05/28 04:55:19;;;;;;;;;8.50;6.25;;;;;;;;5055668;28;45491;-82
2023/05/28 04:57:45;;;;;;;;;6.00;4.00;;;;;;;;5055478;28;45300;-83
2023/05/28 05:00:13;;;;;;;;;5.25;5.00;;;;;;;;5055307;28;45332;-83
2023/05/28 05:02:41;;;;;;;;;7.25;5.00;;;;;;;;5055033;28;45360;-83
2023/05/28 05:05:07;;;;;;;;;8.75;5.25;;;;;;;;5058675;28;45275;-83
2023/05/28 05:07:32;;;;;;;;;6.25;4.50;;;;;;;;5058237;28;45375;-82
2023/05/28 05:09:57;;;;;;;;;6.33;5.00;;;;;;;;5040547;28;46142;-83
2023/05/28 05:12:23;;;;;;;;;6.33;5.00;;;;;;;;5058249;28;45369;-82
2023/05/28 05:14:48;;;;;;;;;11.00;5.00;;;;;;;;5058484;28;45272;-83
2023/05/28 05:17:13;;;;;;;;;14.33;4.67;;;;;;;;5058557;28;45368;-83
2023/05/28 05:19:38;;;;;;;;;13.67;5.67;;;;;;;;5058194;28;45433;-83
2023/05/28 05:22:04;;;;;;;;;8.33;4.00;;;;;;;;5057995;28;45621;-83
2023/05/28 05:24:29;;;;;;;;;8.00;6.50;;;;;;;;5058462;28;45353;-83
2023/05/28 05:26:54;;;;;;;;;11.67;5.67;;;;;;;;5058484;28;45394;-82
2023/05/28 05:29:19;;;;;;;;;7.33;6.00;;;;;;;;5040118;28;46294;-82
2023/05/28 05:31:44;;;;;;;;;8.00;6.00;;;;;;;;5057885;28;45342;-83
2023/05/28 05:34:10;;;;;;;;;10.33;6.67;;;;;;;;5058197;28;45199;-83
2023/05/28 05:36:35;;;;;;;;;15.00;6.67;;;;;;;;5057831;28;45290;-83
2023/05/28 05:39:01;;;;;;;;;6.50;4.00;;;;;;;;5057864;28;46333;-82
2023/05/28 05:41:26;;;;;;;;;7.00;6.00;;;;;;;;5057905;28;45297;-82
2023/05/28 05:43:51;;;;;;;;;4.50;4.00;;;;;;;;5039880;28;45369;-83
2023/05/28 05:46:16;;;;;;;;;14.33;4.67;;;;;;;;5039749;28;45496;-83
2023/05/28 05:48:42;;;;;;;;;12.33;5.00;;;;;;;;5057771;28;46479;-83
2023/05/28 05:51:07;;;;;;;;;8.33;5.67;;;;;;;;5057421;28;45265;-82
2023/05/28 05:53:32;;;;;;;;;9.00;4.33;;;;;;;;5057675;28;45237;-83
2023/05/28 05:55:57;;;;;;;;;11.00;6.00;;;;;;;;5057803;28;45269;-82
2023/05/28 05:58:22;;;;;;;;;6.67;6.33;;;;;;;;5057733;28;46365;-82
2023/05/28 06:00:48;;;;;;;;;10.33;6.00;;;;;;;;5057610;28;45241;-83
2023/05/28 06:03:13;;;;;;;;;11.00;6.00;;;;;;;;5039696;28;45447;-83
2023/05/28 06:05:39;;;;;;;;;6.25;5.00;;;;;;;;5057181;28;45368;-82
2023/05/28 06:08:04;;;;;;;;;6.00;4.50;;;;;;;;5039482;28;47913;-83
2023/05/28 06:10:30;;;;;;;;;9.00;5.50;;;;;;;;5057584;28;45296;-83
2023/05/28 06:12:55;;;;;;;;;6.00;5.33;;;;;;;;5057409;28;45442;-82
2023/05/28 06:15:21;;;;;;;;;3.00;2.25;;;;;;;;5057308;28;45491;-83
2023/05/28 06:17:47;;;;;;;;;13.25;4.50;;;;;;;;5057176;28;45347;-83
2023/05/28 06:20:13;;;;;;;;;5.50;5.00;;;;;;;;5056953;28;45380;-83
2023/05/28 06:22:38;;;;;;;;;7.25;7.00;;;;;;;;5057545;28;45324;-82
2023/05/28 06:25:04;;;;;;;;;8.33;5.67;;;;;;;;5058116;28;45405;-83
2023/05/28 06:27:29;;;;;;;;;8.75;4.50;;;;;;;;5057631;28;45411;-83
2023/05/28 06:29:54;;;;;;;;;7.00;6.00;;;;;;;;5057962;28;45449;-82
2023/05/28 06:32:20;;;;;;;;;8.00;6.00;;;;;;;;5057459;28;45309;-83
2023/05/28 06:34:45;;;;;;;;;8.50;5.75;;;;;;;;5057219;28;45340;-82
2023/05/28 06:37:10;;;;;;;;;3.25;3.25;;;;;;;;5057174;28;45994;-82
2023/05/28 06:39:36;;;;;;;;;4.67;4.00;;;;;;;;5057400;28;45323;-83
2023/05/28 06:42:01;;;;;;;;;9.00;5.25;;;;;;;;5057262;28;45508;-83
2023/05/28 06:44:26;;;;;;;;;6.33;6.00;;;;;;;;5057342;28;45440;-83
2023/05/28 06:46:52;;;;;;;;;4.00;4.00;;;;;;;;5057018;28;46572;-83
2023/05/28 06:49:17;;;;;;;;;8.00;5.00;;;;;;;;5056659;28;45437;-83
2023/05/28 06:51:42;;;;;;;;;10.00;7.00;;;;;;;;5057092;28;45308;-83
2023/05/28 06:54:08;;;;;;;;;6.33;5.00;;;;;;;;5057213;28;45365;-83
2023/05/28 06:56:33;;;;;;;;;8.25;5.00;;;;;;;;5056808;28;45623;-83
2023/05/28 06:58:58;;;;;;;;;4.75;4.00;;;;;;;;5056903;28;45396;-82
2023/05/28 07:01:23;;;;;;;;;8.00;4.00;;;;;;;;5057074;28;45513;-82
2023/05/28 07:03:48;;;;;;;;;4.33;4.00;;;;;;;;5056472;28;45348;-82
2023/05/28 07:06:14;;;;;;;;;7.00;3.00;;;;;;;;5056549;28;46810;-82
2023/05/28 07:08:44;;;;;;;;;5.75;3.50;;;;;;;;5056621;28;45392;-83
2023/05/28 07:11:09;;;;;;;;;9.75;3.75;;;;;;;;5056612;28;45304;-82
2023/05/28 07:13:34;;;;;;;;;5.00;4.33;;;;;;;;5056637;28;45423;-82
2023/05/28 07:15:59;;;;;;;;;8.00;5.00;;;;;;;;5056587;28;46511;-82
2023/05/28 07:18:26;;;;;;;;;7.33;3.33;;;;;;;;5056061;28;45379;-83
2023/05/28 07:20:51;;;;;;;;;9.50;5.00;;;;;;;;5056527;28;45311;-83
2023/05/28 07:23:16;;;;;;;;;8.00;6.00;;;;;;;;5056555;28;45272;-82
2023/05/28 07:25:42;;;;;;;;;7.33;4.33;;;;;;;;5055488;28;46043;-82
2023/05/28 07:28:07;;;;;;;;;7.25;3.50;;;;;;;;5056299;28;45282;-83
2023/05/28 07:30:32;;;;;;;;;5.50;5.00;;;;;;;;5038182;28;45303;-82
2023/05/28 07:32:57;;;;;;;;;9.00;5.00;;;;;;;;5055842;28;45194;-82
2023/05/28 07:35:23;;;;;;;;;8.33;5.00;;;;;;;;5056121;28;45571;-83
2023/05/28 07:37:48;;;;;;;;;5.67;5.00;;;;;;;;5056296;28;45651;-82
2023/05/28 07:40:14;;;;;;;;;7.67;5.00;;;;;;;;5056384;28;45447;-83
2023/05/28 07:42:39;;;;;;;;;8.50;4.50;;;;;;;;5056042;28;45431;-83
2023/05/28 07:45:04;;;;;;;;;8.67;5.33;;;;;;;;5055789;28;45427;-83
2023/05/28 07:47:30;;;;;;;;;6.00;5.25;;;;;;;;5055828;28;45337;-83
2023/05/28 07:49:55;;;;;;;;;6.00;3.00;;;;;;;;5056002;28;45290;-83
2023/05/28 07:52:21;;;;;;;;;11.00;6.00;;;;;;;;5056048;28;45312;-83
2023/05/28 07:54:46;;;;;;;;;3.67;1.67;;;;;;;;5056177;28;46518;-83
2023/05/28 07:57:11;;;;;;;;;6.33;4.00;;;;;;;;5055822;28;45393;-83
2023/05/28 07:59:36;;;;;;;;;5.50;3.00;;;;;;;;5056025;28;45324;-82
2023/05/28 08:02:02;;;;;;;;;5.33;3.00;;;;;;;;5055552;28;45309;-83
2023/05/28 08:04:27;;;;;;;;;5.00;4.00;;;;;;;;5055575;28;45383;-82
2023/05/28 08:06:52;;;;;;;;;3.67;3.00;;;;;;;;5055940;28;45344;-83
2023/05/28 08:09:17;;;;;;;;;8.00;3.67;;;;;;;;5055835;28;45450;-83
2023/05/28 08:11:43;;;;;;;;;3.75;3.00;;;;;;;;5055726;28;45242;-83
2023/05/28 08:14:08;;;;;;;;;3.25;2.00;;;;;;;;5055511;28;45902;-83
2023/05/28 08:16:33;;;;;;;;;10.00;5.00;;;;;;;;5055374;28;45353;-83
2023/05/28 08:18:59;;;;;;;;;9.00;5.00;;;;;;;;5056611;28;45312;-83
2023/05/28 08:21:25;;;;;;;;;4.00;4.00;;;;;;;;5056145;28;45529;-83
2023/05/28 08:23:50;;;;;;;;;4.50;4.00;;;;;;;;5055989;28;47112;-83
2023/05/28 08:26:15;;;;;;;;;4.25;4.00;;;;;;;;5056070;28;45345;-83
2023/05/28 08:28:40;;;;;;;;;6.25;4.75;;;;;;;;5055981;28;45316;-83
2023/05/28 08:31:06;;;;;;;;;9.00;4.67;;;;;;;;5055534;28;45401;-83
2023/05/28 08:33:31;;;;;;;;;3.67;2.67;;;;;;;;5055682;28;45420;-83
2023/05/28 08:35:56;;;;;;;;;3.00;3.00;;;;;;;;5055971;28;45544;-83
2023/05/28 08:38:21;;;;;;;;;4.00;3.33;;;;;;;;5058421;28;45276;-82
2023/05/28 08:40:48;;;;;;;;;5.67;3.67;;;;;;;;5059373;28;45450;-82
2023/05/28 08:43:14;;;;;;;;;3.25;2.75;;;;;;;;5058846;28;45486;-82
2023/05/28 08:45:39;;;;;;;;;2.67;2.00;;;;;;;;5058462;28;45407;-82
2023/05/28 08:48:04;;;;;;;;;6.33;4.00;;;;;;;;5059213;28;45426;-82
2023/05/28 08:50:30;;;;;;;;;6.25;3.25;;;;;;;;5058654;28;45601;-83
2023/05/28 08:52:56;;;;;;;;;5.25;4.00;;;;;;;;5058570;28;46193;-83
2023/05/28 08:55:21;;;;;;;;;9.00;4.00;;;;;;;;5058762;28;45337;-82
2023/05/28 08:57:47;;;;;;;;;4.00;4.00;;;;;;;;5059021;28;45388;-82
2023/05/28 09:00:12;;;;;;;;;7.00;3.75;;;;;;;;5058525;28;45427;-82
2023/05/28 09:02:38;;;;;;;;;4.00;1.50;;;;;;;;5058378;28;46362;-82
2023/05/28 09:05:04;;;;;;;;;4.75;2.75;;;;;;;;5040572;28;45317;-82
2023/05/28 09:07:29;;;;;;;;;6.75;4.00;;;;;;;;5058773;28;45326;-83
2023/05/28 09:09:56;;;;;;;;;9.00;4.00;;;;;;;;5058664;28;45356;-82
2023/05/28 09:12:22;;;;;;;;;5.00;3.25;;;;;;;;5058202;28;45687;-82
2023/05/28 09:14:49;;;;;;;;;4.00;4.00;;;;;;;;5058177;28;45173;-82
2023/05/28 09:17:14;;;;;;;;;6.25;3.00;;;;;;;;5058536;28;45392;-82
2023/05/28 09:19:49;;;;;;;;;6.50;2.75;;;;;;;;5058338;28;45304;-82
2023/05/28 09:22:14;;;;;;;;;6.00;4.25;;;;;;;;5058257;28;46321;-83
2023/05/28 09:24:40;;;;;;;;;5.25;3.00;;;;;;;;5058243;28;45372;-82
2023/05/28 09:27:06;;;;;;;;;6.00;4.00;;;;;;;;5058210;28;45337;-82
2023/05/28 09:29:31;;;;;;;;;8.75;4.25;;;;;;;;5058021;28;45475;-82
2023/05/28 09:32:00;;;;;;;;;5.00;3.67;;;;;;;;5057878;28;45281;-83
2023/05/28 09:34:29;;;;;;;;;5.00;4.00;;;;;;;;5058167;28;45616;-82
2023/05/28 09:37:01;;;;;;;;;8.00;4.25;;;;;;;;5058137;28;45306;-83
2023/05/28 09:39:27;;;;;;;;;6.00;3.50;;;;;;;;5058126;28;45328;-82
2023/05/28 09:42:11;;;;;;;;;6.50;5.00;;;;;;;;5057767;28;45674;-82
2023/05/28 09:44:38;;;;;;;;;5.00;4.75;;;;;;;;5057459;28;45410;-82
2023/05/28 09:47:16;;;;;;;;;5.50;4.00;;;;;;;;5058065;28;45350;-82
2023/05/28 09:49:42;;;;;;;;;4.50;2.75;;;;;;;;5057444;28;45312;-82
2023/05/28 09:52:08;;;;;;;;;5.75;5.00;;;;;;;;5057605;28;46782;-82
2023/05/28 09:54:35;;;;;;;;;4.75;4.00;;;;;;;;5057778;28;45841;-83
2023/05/28 09:57:02;;;;;;;;;6.00;3.75;;;;;;;;5057548;28;45336;-82
2023/05/28 09:59:30;;;;;;;;;3.75;3.25;;;;;;;;5057792;28;45407;-83
2023/05/28 10:01:59;;;;;;;;;5.00;2.50;;;;;;;;5057561;28;45590;-83
2023/05/28 10:04:32;;;;;;;;;5.00;2.50;;;;;;;;5039631;28;45375;-82
2023/05/28 10:06:57;;;;;;;;;7.00;2.50;;;;;;;;5057661;28;45339;-82
2023/05/28 10:09:23;;;;;;;;;4.00;2.50;;;;;;;;5057580;28;45372;-82
2023/05/28 10:11:53;;;;;;;;;4.25;1.25;;;;;;;;5038940;28;47488;-82
2023/05/28 10:14:18;;;;;;;;;4.50;3.50;;;;;;;;5060229;28;45584;-82
2023/05/28 10:16:44;;;;;;;;;4.00;2.75;;;;;;;;5058163;28;45834;-83
2023/05/28 10:19:09;;;;;;;;;6.00;3.75;;;;;;;;5057926;28;45460;-83
2023/05/28 10:21:35;;;;;;;;;2.75;2.75;;;;;;;;5057617;28;45403;-83
2023/05/28 10:24:00;;;;;;;;;3.50;2.75;;;;;;;;5057674;28;45323;-83
2023/05/28 10:26:26;;;;;;;;;3.25;2.00;;;;;;;;5057507;28;45759;-82
2023/05/28 10:28:57;;;;;;;;;6.00;3.25;;;;;;;;5057807;28;45347;-82
2023/05/28 10:31:23;;;;;;;;;6.25;3.75;;;;;;;;5057320;28;45716;-82
2023/05/28 10:33:48;;;;;;;;;4.00;2.50;;;;;;;;5057490;28;45242;-83
2023/05/28 10:36:15;;;;;;;;;3.50;2.50;;;;;;;;5057540;28;45408;-82
2023/05/28 10:38:41;;;;;;;;;2.50;2.00;;;;;;;;5057484;28;45376;-83
2023/05/28 10:41:06;;;;;;;;;2.25;1.25;;;;;;;;5056931;28;45413;-82
2023/05/28 10:43:37;;;;;;;;;5.00;3.00;;;;;;;;5057593;28;45381;-83
2023/05/28 10:46:03;;;;;;;;;3.75;3.00;;;;;;;;5057006;28;45351;-83
2023/05/28 10:48:29;;;;;;;;;3.50;2.25;;;;;;;;5057230;28;45490;-82
2023/05/28 10:50:56;;;;;;;;;3.50;3.00;;;;;;;;5056952;28;46215;-82
2023/05/28 10:53:21;;;;;;;;;4.25;4.25;;;;;;;;5057028;28;45427;-82
2023/05/28 10:55:47;;;;;;;;;5.00;3.00;;;;;;;;5056762;28;45445;-82
2023/05/28 10:58:21;;;;;;;;;2.75;2.75;;;;;;;;5057288;28;45349;-83
2023/05/28 11:00:47;;;;;;;;;6.50;4.00;;;;;;;;5055880;28;45514;-82
2023/05/28 11:03:13;;;;;;;;;3.00;3.00;;;;;;;;5056880;28;45435;-82
2023/05/28 11:05:38;;;;;;;;;4.75;2.50;;;;;;;;5057034;28;45289;-83
2023/05/28 11:08:04;;;;;;;;;6.75;3.50;;;;;;;;5056922;28;45365;-82
2023/05/28 11:10:29;;;;;;;;;4.25;4.25;;;;;;;;5056148;28;46208;-82
2023/05/28 11:12:55;;;;;;;;;5.00;3.00;;;;;;;;5056427;28;45334;-82
2023/05/28 11:15:20;;;;;;;;;2.25;2.00;;;;;;;;5038684;28;45712;-83
2023/05/28 11:17:46;;;;;;;;;3.25;1.25;;;;;;;;5038591;28;45491;-83
2023/05/28 11:20:18;;;;;;;;;3.00;2.50;;;;;;;;5056526;28;46128;-82
2023/05/28 11:22:43;;;;;;;;;2.00;2.00;;;;;;;;5038517;28;45565;-83
2023/05/28 11:25:09;;;;;;;;;5.33;2.33;;;;;;;;5056170;28;45333;-82
2023/05/28 11:27:36;;;;;;;;;1.75;1.25;;;;;;;;5056604;28;45281;-83
2023/05/28 11:30:06;;;;;;;;;3.50;3.50;;;;;;;;5056501;28;45399;-83
2023/05/28 11:32:32;;;;;;;;;3.75;2.25;;;;;;;;5056391;28;45665;-83
2023/05/28 11:34:58;;;;;;;;;2.25;2.00;;;;;;;;5038376;28;45424;-82
2023/05/28 11:37:27;;;;;;;;;2.00;1.00;;;;;;;;5056576;28;45344;-83
2023/05/28 11:39:53;;;;;;;;;2.25;2.00;;;;;;;;5055732;28;46480;-83
2023/05/28 11:42:19;;;;;;;;;1.00;1.00;;;;;;;;5038288;28;45736;-83
2023/05/28 11:44:45;;;;;;;;;1.50;1.00;;;;;;;;5056346;28;45377;-83
2023/05/28 11:47:11;;;;;;;;;1.00;1.00;;;;;;;;5055931;28;45350;-83
2023/05/28 11:49:36;;;;;;;;;2.50;1.00;;;;;;;;5056177;28;46063;-83
2023/05/28 11:52:02;;;;;;;;;3.00;1.00;;;;;;;;5055769;28;45392;-83
2023/05/28 11:54:27;;;;;;;;;2.00;1.00;;;;;;;;5056066;28;45364;-83
2023/05/28 11:56:52;;;;;;;;;2.33;1.00;;;;;;;;5056162;28;45397;-83
2023/05/28 11:59:18;;;;;;;;;1.67;1.67;;;;;;;;5055903;28;46428;-83
2023/05/28 12:01:44;;;;;;;;;1.00;1.00;;;;;;;;5055908;28;45494;-83
2023/05/28 12:04:09;;;;;;;;;2.00;1.50;;;;;;;;5056100;28;45318;-83
2023/05/28 12:06:49;;;;;;;;;4.75;3.00;;;;;;;;5037959;28;45325;-83
2023/05/28 12:09:15;;;;;;;;;1.00;1.00;;;;;;;;5055656;28;45322;-82
2023/05/28 12:11:40;;;;;;;;;2.50;2.00;;;;;;;;5055819;28;45736;-83
2023/05/28 12:14:10;;;;;;;;;2.33;1.33;;;;;;;;5063543;28;45524;-83
2023/05/28 12:16:47;;;;;;;;;2.50;1.00;;;;;;;;5060645;28;45379;-81
2023/05/28 12:19:15;;;;;;;;;6.25;2.00;;;;;;;;5059606;28;45494;-84
2023/05/28 12:21:40;;;;;;;;;2.25;1.50;;;;;;;;5059618;28;45391;-83
2023/05/28 12:24:15;;;;;;;;;0.75;0.75;;;;;;;;5059077;28;45369;-82
2023/05/28 12:26:43;;;;;;;;;2.50;1.25;;;;;;;;5059541;28;45340;-81
2023/05/28 12:29:08;;;;;;;;;4.25;1.00;;;;;;;;5059564;28;46160;-82
2023/05/28 12:31:33;;;;;;;;;4.00;2.00;;;;;;;;5059381;28;45457;-82
2023/05/28 12:33:58;;;;;;;;;2.50;1.00;;;;;;;;5059631;28;45243;-82
2023/05/28 12:36:24;;;;;;;;;4.67;3.33;;;;;;;;5059125;28;45449;-81
2023/05/28 12:38:49;;;;;;;;;1.00;0.67;;;;;;;;5059191;28;46072;-82
2023/05/28 12:41:14;;;;;;;;;2.75;1.00;;;;;;;;5059122;28;45440;-82
2023/05/28 12:43:39;;;;;;;;;5.00;2.00;;;;;;;;5059270;28;45308;-82
2023/05/28 12:46:05;;;;;;;;;2.00;0.00;;;;;;;;5058949;28;45258;-82
2023/05/28 12:48:30;;;;;;;;;3.00;1.00;;;;;;;;5059011;28;45476;-82
2023/05/28 12:50:55;;;;;;;;;2.33;1.33;;;;;;;;5058395;28;45290;-82
2023/05/28 12:53:22;;;;;;;;;1.75;1.00;;;;;;;;5059060;28;45372;-82
2023/05/28 12:55:47;;;;;;;;;2.33;2.00;;;;;;;;5058951;28;45397;-82
2023/05/28 12:58:12;;;;;;;;;3.67;2.00;;;;;;;;5058770;28;45364;-83
2023/05/28 13:00:38;;;;;;;;;2.00;2.00;;;;;;;;5058799;28;45401;-82
2023/05/28 13:03:03;;;;;;;;;1.00;1.00;;;;;;;;5059053;28;45427;-82
2023/05/28 13:05:32;;;;;;;;;0.50;0.50;;;;;;;;5058506;28;45429;-82
2023/05/28 13:07:58;;;;;;;;;1.25;1.00;;;;;;;;5058526;28;46351;-82
2023/05/28 13:10:23;;;;;;;;;2.00;0.00;;;;;;;;5058736;28;45383;-82
2023/05/28 13:12:48;;;;;;;;;5.00;2.00;;;;;;;;5058447;28;45254;-82
2023/05/28 13:15:13;;;;;;;;;1.00;1.00;;;;;;;;5058426;28;45326;-83
2023/05/28 13:17:39;;;;;;;;;2.00;1.00;;;;;;;;5040486;28;48020;-83
2023/05/28 13:20:09;;;;;;;;;1.00;1.00;;;;;;;;5058256;28;45293;-83
2023/05/28 13:22:36;;;;;;;;;4.50;2.25;;;;;;;;5040330;28;45414;-83
2023/05/28 13:25:02;;;;;;;;;2.00;1.00;;;;;;;;5057722;28;45446;-82
2023/05/28 13:27:28;;;;;;;;;2.00;1.00;;;;;;;;5058179;28;46413;-82
2023/05/28 13:29:53;;;;;;;;;1.00;1.00;;;;;;;;5058182;28;45285;-83
2023/05/28 13:32:18;;;;;;;;;0.67;0.33;;;;;;;;5058439;28;45454;-83
2023/05/28 13:34:43;;;;;;;;;1.00;0.67;;;;;;;;5058164;28;45321;-83
2023/05/28 13:37:08;;;;;;;;;3.33;1.00;;;;;;;;5058416;28;45454;-83
2023/05/28 13:39:34;;;;;;;;;2.67;1.33;;;;;;;;5058413;28;45260;-83
2023/05/28 13:41:59;;;;;;;;;2.00;0.00;;;;;;;;5058156;28;45464;-83
2023/05/28 13:44:24;;;;;;;;;1.33;0.67;;;;;;;;5058309;28;45239;-82
2023/05/28 13:46:49;;;;;;;;;1.67;1.00;;;;;;;;5057651;28;45464;-83
2023/05/28 13:49:15;;;;;;;;;2.75;2.00;;;;;;;;5057581;28;45373;-83
2023/05/28 13:51:41;;;;;;;;;0.50;0.50;;;;;;;;5057860;28;45448;-83
2023/05/28 13:54:07;;;;;;;;;1.00;1.00;;;;;;;;5057790;28;45568;-83
2023/05/28 13:56:32;;;;;;;;;1.25;1.00;;;;;;;;5057702;28;45578;-83
2023/05/28 13:58:57;;;;;;;;;1.00;0.67;;;;;;;;5057707;28;45441;-83
2023/05/28 14:01:23;;;;;;;;;2.00;2.00;;;;;;;;5057750;28;45392;-83
2023/05/28 14:03:48;;;;;;;;;8.67;5.00;;;;;;;;5057820;28;45349;-83
2023/05/28 14:06:13;;;;;;;;;2.00;2.00;;;;;;;;5057528;28;45606;-83
2023/05/28 14:08:38;;;;;;;;;0.00;0.00;;;;;;;;5057632;28;45418;-83
2023/05/28 14:11:04;;;;;;;;;2.33;1.00;;;;;;;;5057743;28;45762;-83
2023/05/28 14:13:31;;;;;;;;;1.00;0.67;;;;;;;;5057575;28;45501;-83
2023/05/28 14:15:57;;;;;;;;;3.25;1.50;;;;;;;;5057271;28;45423;-83
2023/05/28 14:18:22;;;;;;;;;1.00;1.00;;;;;;;;5061434;28;45590;-82
2023/05/28 14:20:47;;;;;;;;;0.33;0.33;;;;;;;;5065540;28;44738;-82
2023/05/28 14:23:12;;;;;;;;;2.67;1.33;;;;;;;;5039881;28;45481;-83
2023/05/28 14:25:37;;;;;;;;;2.33;1.00;;;;;;;;5057760;28;45446;-83
2023/05/28 14:28:03;;;;;;;;;1.00;1.00;;;;;;;;5057853;28;45541;-83
2023/05/28 14:30:28;;;;;;;;;4.00;1.00;;;;;;;;5057879;28;45306;-83
2023/05/28 14:32:56;;;;;;;;;2.33;1.00;;;;;;;;5057291;28;45358;-83
2023/05/28 14:35:21;;;;;;;;;3.00;2.00;;;;;;;;5057305;28;45378;-82